メインページ
METAR-TAF:

METAR-TAF

空港 :

台北, 台湾

台湾桃園国際空港

緯度: 25-05N, 経度: 121-13E, 海抜: 33m

現時点の気象観測

当レポートは16分前の12:00(UTC)に作成
北/北東の風 6kt
気温 15°C
湿度 94%
気圧 1019 hPa
視程: 5000m
高度300ftの雲はほとんどない
高度500ftの千切れ雲あり
高度10000ftの千切れ雲あり

METAR: RCTP 241200Z 03006KT 5000 BR FEW003 BKN005 BKN100 15/14 Q1019 NOSIG RMK A3010

時間: 20:16 (12:16 UTC)

予報

当レポートは1時間16分前の11:00(UTC)に作成
予報は24日の 12時(UTC)から 25日の 18時(UTC)まで有効
北/北東の風 5kt
視程: 4000m
高度300ftの雲は散在している
高度600ftの千切れ雲あり
高度2000ftの千切れ雲あり
24日の 12時(UTC)から 24日の 16時(UTC)まで一時的に
視程: 6000m
高度600ftの雲は散在している
高度1100ftの千切れ雲あり
高度3000ftの千切れ雲あり
24日の 18時(UTC)から 24日の 22時(UTC)まで一時的に
視程: 2200m
高度200ftの雲は散在している
高度400ftの千切れ雲あり
高度1500ftの千切れ雲あり
24日の 22時(UTC)から 24日の 24時(UTC)まで一時的に
北/北東の風 10kt
視程: 1200m
高度100ftの雲は散在している
高度300ftの千切れ雲あり
高度1200ftの千切れ雲あり
雨, 靄
25日の 00時(UTC)から 25日の 02時(UTC)まで徐々に
北/北東の風 15kt
視程: 6000m
高度600ftの雲は散在している
高度1100ftの千切れ雲あり
高度3000ftの千切れ雲あり
25日の 06時(UTC)から 25日の 12時(UTC)まで一時的に
北東の風 20kt
高度1000ftの雲はほとんどない
高度2000ftの千切れ雲あり
高度4000ftの千切れ雲あり

TAF: RCTP 241100Z 2412/2518 03005KT 4000 BR SCT003 BKN006 BKN020 TEMPO 2412/2416 6000 SCT006 BKN011 BKN030 TEMPO 2418/2422 2200 BR SCT002 BKN004 BKN015 TEMPO 2422/2424 02010KT 1200 RA BR SCT001 BKN003 BKN012 BECMG 2500/2502 03015KT 6000 SCT006 BKN011 BKN030 TEMPO 2506/2512 04020KT FEW010 BKN020 BKN040

4,000以上の空港の気象観測と天気予報(METAR報とTAF報)

利用可能な観測所は地図上に黄色い丸と赤い丸で示す。

丸の上にカーソルを重ねると観測所名を参照できる。

次にクリックすると気象観測と天気予報を参照できる。

マップの切り替え:黒色「×」印の緑ボタンをクリックして拡大、「-」印の緑ボタンをクリックして縮小、緑色の三角印をクリックして隣りの地図に切り替え


METAR-TAF: